createdAt,value
2019-03-29T00:00:01.126Z,0.00
2019-03-29T00:01:01.128Z,0.00
2019-03-29T00:02:01.075Z,0.00
2019-03-29T00:03:01.096Z,0.00
2019-03-29T00:04:01.206Z,0.00
2019-03-29T00:05:01.047Z,0.00
2019-03-29T00:06:01.112Z,0.00
2019-03-29T00:07:01.017Z,0.00
2019-03-29T00:08:01.138Z,0.00
2019-03-29T00:09:01.979Z,0.00
2019-03-29T00:10:00.993Z,0.00
2019-03-29T00:11:00.975Z,0.00
2019-03-29T00:12:00.967Z,0.00
2019-03-29T00:13:00.957Z,0.00
2019-03-29T00:14:00.972Z,0.00
2019-03-29T00:15:00.936Z,0.00
2019-03-29T00:16:00.922Z,0.00
2019-03-29T00:17:00.907Z,0.00
2019-03-29T00:18:00.899Z,0.00
2019-03-29T00:19:01.338Z,0.00
2019-03-29T00:20:00.902Z,0.00
2019-03-29T00:21:00.873Z,0.00
2019-03-29T00:22:00.853Z,0.00
2019-03-29T00:23:00.896Z,0.00
2019-03-29T00:24:06.513Z,0.00
2019-03-29T00:25:01.830Z,0.00
2019-03-29T00:26:00.823Z,0.00
2019-03-29T00:27:00.794Z,0.00
2019-03-29T00:28:00.802Z,0.00
2019-03-29T00:29:00.794Z,0.00
2019-03-29T00:30:00.805Z,0.00
2019-03-29T00:31:00.760Z,0.00
2019-03-29T00:32:00.738Z,0.00
2019-03-29T00:33:00.775Z,0.00
2019-03-29T00:34:00.747Z,0.00
2019-03-29T00:35:00.706Z,0.00
2019-03-29T00:36:00.693Z,0.00
2019-03-29T00:37:00.690Z,0.00
2019-03-29T00:38:00.669Z,0.00
2019-03-29T00:39:00.700Z,0.00
2019-03-29T00:40:00.648Z,0.00
2019-03-29T00:41:00.640Z,0.00
2019-03-29T00:42:00.629Z,0.00
2019-03-29T00:43:00.624Z,0.00
2019-03-29T00:44:01.083Z,0.00
2019-03-29T00:45:00.592Z,0.00
2019-03-29T00:46:00.583Z,0.00
2019-03-29T00:47:00.577Z,0.00
2019-03-29T00:48:00.576Z,0.00
2019-03-29T00:49:00.580Z,0.00
2019-03-29T00:50:00.547Z,0.00
2019-03-29T00:51:00.526Z,0.00
2019-03-29T00:52:00.521Z,0.00
2019-03-29T00:53:00.499Z,0.00
2019-03-29T00:54:01.907Z,0.00
2019-03-29T00:55:00.530Z,0.00
2019-03-29T00:56:00.473Z,0.00
2019-03-29T00:57:00.464Z,0.00
2019-03-29T00:58:00.445Z,0.00
2019-03-29T00:59:00.453Z,0.00
2019-03-29T01:00:00.423Z,0.00
2019-03-29T01:01:00.410Z,0.00
2019-03-29T01:02:00.397Z,0.00
2019-03-29T01:03:00.404Z,0.00
2019-03-29T01:04:00.411Z,0.00
2019-03-29T01:05:00.368Z,0.00
2019-03-29T01:06:00.355Z,0.00
2019-03-29T01:07:00.348Z,0.00
2019-03-29T01:08:07.694Z,0.00
2019-03-29T01:09:01.360Z,0.00
2019-03-29T01:10:00.482Z,0.00
2019-03-29T01:11:02.312Z,0.00
2019-03-29T01:12:00.290Z,0.00
2019-03-29T01:13:00.273Z,0.00
2019-03-29T01:14:00.273Z,0.00
2019-03-29T01:15:00.391Z,0.00
2019-03-29T01:16:00.259Z,0.00
2019-03-29T01:17:00.227Z,0.00
2019-03-29T01:18:00.226Z,0.00
2019-03-29T01:19:00.219Z,0.00
2019-03-29T01:20:00.369Z,0.00
2019-03-29T01:21:00.187Z,0.00
2019-03-29T01:22:00.189Z,0.00
2019-03-29T01:23:00.171Z,0.00
2019-03-29T01:24:00.154Z,0.00
2019-03-29T01:25:00.224Z,0.00
2019-03-29T01:26:00.953Z,0.00
2019-03-29T01:27:00.125Z,0.00
2019-03-29T01:28:00.112Z,0.00
2019-03-29T01:29:00.095Z,0.00
2019-03-29T01:30:00.273Z,0.00
2019-03-29T01:31:00.077Z,0.00
2019-03-29T01:32:00.062Z,0.00
2019-03-29T01:33:00.059Z,0.00
2019-03-29T01:34:00.045Z,0.00
2019-03-29T01:35:00.055Z,0.00
2019-03-29T01:36:00.018Z,0.00
2019-03-29T01:37:00.008Z,0.00
2019-03-29T01:37:59.999Z,0.00
2019-03-29T01:38:59.992Z,0.00
2019-03-29T01:40:00.002Z,0.00
2019-03-29T01:41:00.407Z,0.00
2019-03-29T01:41:59.951Z,0.00
2019-03-29T01:42:59.941Z,0.00
2019-03-29T01:43:59.938Z,0.00
2019-03-29T01:44:59.937Z,0.00
2019-03-29T01:45:59.909Z,0.00
2019-03-29T01:46:59.906Z,0.00
2019-03-29T01:47:59.890Z,0.00
2019-03-29T01:48:59.874Z,0.00
2019-03-29T01:49:59.879Z,0.00
2019-03-29T01:50:59.851Z,0.00
2019-03-29T01:51:59.838Z,0.00
2019-03-29T01:52:59.922Z,0.00
2019-03-29T01:53:59.823Z,0.00
2019-03-29T01:54:59.818Z,0.00
2019-03-29T01:55:59.811Z,0.00
2019-03-29T01:56:59.781Z,0.00
2019-03-29T01:57:59.769Z,0.00
2019-03-29T01:58:59.764Z,0.00
2019-03-29T01:59:59.770Z,0.00
2019-03-29T02:00:59.743Z,0.00
2019-03-29T02:01:59.723Z,0.00
2019-03-29T02:02:59.715Z,0.00
2019-03-29T02:03:59.709Z,0.00
2019-03-29T02:05:00.226Z,0.00
2019-03-29T02:05:59.688Z,0.00
2019-03-29T02:06:59.668Z,0.00
2019-03-29T02:07:59.657Z,0.00
2019-03-29T02:08:59.645Z,0.00
2019-03-29T02:09:59.749Z,0.00
2019-03-29T02:10:59.624Z,0.00
2019-03-29T02:11:59.614Z,0.00
2019-03-29T02:12:59.858Z,0.00
2019-03-29T02:13:59.590Z,0.00
2019-03-29T02:14:59.601Z,0.00
2019-03-29T02:15:59.576Z,0.00
2019-03-29T02:16:59.557Z,0.00
2019-03-29T02:17:59.554Z,0.00
2019-03-29T02:18:59.539Z,0.00
2019-03-29T02:19:59.544Z,0.00
2019-03-29T02:20:59.514Z,0.00
2019-03-29T02:21:59.502Z,0.00
2019-03-29T02:22:59.489Z,0.00
2019-03-29T02:23:59.477Z,0.00
2019-03-29T02:24:59.490Z,0.00
2019-03-29T02:25:59.454Z,0.00
2019-03-29T02:27:00.211Z,0.00
2019-03-29T02:27:59.428Z,0.00
2019-03-29T02:28:59.441Z,0.00
2019-03-29T02:29:59.446Z,0.00
2019-03-29T02:30:59.823Z,0.00
2019-03-29T02:31:59.390Z,0.00
2019-03-29T02:32:59.378Z,0.00
2019-03-29T02:33:59.377Z,0.00
2019-03-29T02:34:59.380Z,0.00
2019-03-29T02:35:59.349Z,0.00
2019-03-29T02:37:00.797Z,0.00
2019-03-29T02:37:59.327Z,0.00
2019-03-29T02:38:59.471Z,0.00
2019-03-29T02:39:59.311Z,0.00
2019-03-29T02:40:59.291Z,0.00
2019-03-29T02:41:59.273Z,0.00
2019-03-29T02:42:59.306Z,0.00
2019-03-29T02:43:59.249Z,0.00
2019-03-29T02:44:59.322Z,0.00
2019-03-29T02:45:59.229Z,0.00
2019-03-29T02:46:59.222Z,0.00
2019-03-29T02:47:59.203Z,0.00
2019-03-29T02:48:59.197Z,0.00
2019-03-29T02:49:59.209Z,0.00
2019-03-29T02:50:59.179Z,0.00
2019-03-29T02:51:59.173Z,0.00
2019-03-29T02:52:59.156Z,0.00
2019-03-29T02:53:59.140Z,0.00
2019-03-29T02:54:59.150Z,0.00
2019-03-29T02:55:59.125Z,0.00
2019-03-29T02:56:59.117Z,0.00
2019-03-29T02:57:59.096Z,0.00
2019-03-29T02:58:59.081Z,0.00
2019-03-29T02:59:59.108Z,0.00
2019-03-29T03:00:59.071Z,0.00
2019-03-29T03:01:59.059Z,0.00
2019-03-29T03:02:59.065Z,0.00
2019-03-29T03:03:59.029Z,0.00
2019-03-29T03:04:59.033Z,0.00
2019-03-29T03:05:59.009Z,0.00
2019-03-29T03:06:58.994Z,0.00
2019-03-29T03:07:58.989Z,0.00
2019-03-29T03:09:12.270Z,0.00
2019-03-29T03:09:59.971Z,0.00
2019-03-29T03:10:58.945Z,0.00
2019-03-29T03:11:58.939Z,0.00
2019-03-29T03:12:58.929Z,0.00
2019-03-29T03:13:58.923Z,0.00
2019-03-29T03:14:58.953Z,0.00
2019-03-29T03:15:58.885Z,0.00
2019-03-29T03:16:58.887Z,0.00
2019-03-29T03:17:58.869Z,0.00
2019-03-29T03:18:58.861Z,0.00
2019-03-29T03:19:58.869Z,0.00
2019-03-29T03:20:58.858Z,0.00
2019-03-29T03:21:58.823Z,0.00
2019-03-29T03:22:58.806Z,0.00
2019-03-29T03:23:58.812Z,0.00
2019-03-29T03:24:58.823Z,0.00
2019-03-29T03:25:58.787Z,0.00
2019-03-29T03:26:58.764Z,0.00
2019-03-29T03:27:58.754Z,0.00
2019-03-29T03:28:58.786Z,0.00
2019-03-29T03:29:58.744Z,0.00
2019-03-29T03:30:58.724Z,0.00
2019-03-29T03:31:58.717Z,0.00
2019-03-29T03:32:58.721Z,0.00
2019-03-29T03:33:58.707Z,0.00
2019-03-29T03:34:58.687Z,0.00
2019-03-29T03:35:58.684Z,0.00
2019-03-29T03:36:58.655Z,0.00
2019-03-29T03:37:58.648Z,0.00
2019-03-29T03:38:58.637Z,0.00
2019-03-29T03:39:58.623Z,0.00
2019-03-29T03:40:58.633Z,0.00
2019-03-29T03:41:58.603Z,0.00
2019-03-29T03:42:58.598Z,0.00
2019-03-29T03:43:58.575Z,0.00
2019-03-29T03:44:58.568Z,0.00
2019-03-29T03:45:58.573Z,0.00
2019-03-29T03:46:58.552Z,0.00
2019-03-29T03:47:58.533Z,0.00
2019-03-29T03:48:58.522Z,0.00
2019-03-29T03:50:00.978Z,0.00
2019-03-29T03:50:58.525Z,0.00
2019-03-29T03:51:58.493Z,0.00
2019-03-29T03:52:58.532Z,0.00
2019-03-29T03:53:58.465Z,0.00
2019-03-29T03:54:58.449Z,0.00
2019-03-29T03:55:58.473Z,0.00
2019-03-29T03:56:58.428Z,0.00
2019-03-29T03:57:58.437Z,0.00
2019-03-29T03:58:58.409Z,0.00
2019-03-29T03:59:58.400Z,0.00
2019-03-29T04:00:58.403Z,0.00
2019-03-29T04:01:58.372Z,0.00
2019-03-29T04:02:58.367Z,0.00
2019-03-29T04:03:58.368Z,0.00
2019-03-29T04:04:58.339Z,0.00
2019-03-29T04:05:58.345Z,0.00
2019-03-29T04:06:58.315Z,0.00
2019-03-29T04:07:58.355Z,0.00
2019-03-29T04:08:58.307Z,0.00
2019-03-29T04:09:58.284Z,0.00
2019-03-29T04:10:58.301Z,0.00
2019-03-29T04:11:58.324Z,0.00
2019-03-29T04:12:58.257Z,0.00
2019-03-29T04:13:58.239Z,0.00
2019-03-29T04:14:58.235Z,0.00
2019-03-29T04:15:58.256Z,0.00
2019-03-29T04:16:58.215Z,0.00
2019-03-29T04:17:58.198Z,0.00
2019-03-29T04:18:58.182Z,0.00
2019-03-29T04:19:58.183Z,0.00
2019-03-29T04:20:58.187Z,0.00
2019-03-29T04:21:58.156Z,0.00
2019-03-29T04:22:58.143Z,0.00
2019-03-29T04:23:58.129Z,0.00
2019-03-29T04:24:58.111Z,0.00
2019-03-29T04:25:58.138Z,0.00
2019-03-29T04:26:58.090Z,0.00
2019-03-29T04:27:58.078Z,0.00
2019-03-29T04:29:04.659Z,0.00
2019-03-29T04:29:59.058Z,0.00
2019-03-29T04:30:58.043Z,0.00
2019-03-29T04:31:58.065Z,0.00
2019-03-29T04:32:58.021Z,0.00
2019-03-29T04:33:58.008Z,0.00
2019-03-29T04:34:58.003Z,0.00
2019-03-29T04:35:58.002Z,0.00
2019-03-29T04:36:57.992Z,0.00
2019-03-29T04:37:57.962Z,0.00
2019-03-29T04:38:57.957Z,0.00
2019-03-29T04:40:06.779Z,0.00
2019-03-29T04:40:58.938Z,0.00
2019-03-29T04:41:57.944Z,0.00
2019-03-29T04:42:57.913Z,0.00
2019-03-29T04:43:57.894Z,0.00
2019-03-29T04:44:59.797Z,0.00
2019-03-29T04:45:57.873Z,0.00
2019-03-29T04:46:57.884Z,0.00
2019-03-29T04:47:57.857Z,0.00
2019-03-29T04:48:57.839Z,0.00
2019-03-29T04:49:57.828Z,0.00
2019-03-29T04:50:57.881Z,0.00
2019-03-29T04:51:57.822Z,0.00
2019-03-29T04:52:57.796Z,0.00
2019-03-29T04:53:57.787Z,0.00
2019-03-29T04:54:57.775Z,5.62
2019-03-29T04:55:57.767Z,5.62
2019-03-29T04:56:57.773Z,5.62
2019-03-29T04:57:57.736Z,5.62
2019-03-29T04:58:57.727Z,5.62
2019-03-29T04:59:57.717Z,5.62
2019-03-29T05:00:57.714Z,5.62
2019-03-29T05:01:57.710Z,5.62
2019-03-29T05:02:57.689Z,11.25
2019-03-29T05:03:57.679Z,11.25
2019-03-29T05:04:57.664Z,11.25
2019-03-29T05:05:57.648Z,11.25
2019-03-29T05:06:57.659Z,11.25
2019-03-29T05:07:57.628Z,16.88
2019-03-29T05:08:57.615Z,16.88
2019-03-29T05:09:57.603Z,16.88
2019-03-29T05:10:57.611Z,22.50
2019-03-29T05:11:57.604Z,22.50
2019-03-29T05:12:59.629Z,22.50
2019-03-29T05:13:57.562Z,22.50
2019-03-29T05:14:57.554Z,22.50
2019-03-29T05:15:57.537Z,28.12
2019-03-29T05:16:57.557Z,28.12
2019-03-29T05:17:57.520Z,28.12
2019-03-29T05:18:57.507Z,28.12
2019-03-29T05:19:57.496Z,33.75
2019-03-29T05:20:57.482Z,33.75
2019-03-29T05:21:57.517Z,39.38
2019-03-29T05:22:57.463Z,39.38
2019-03-29T05:23:57.454Z,39.38
2019-03-29T05:24:57.440Z,45.00
2019-03-29T05:25:57.421Z,45.00
2019-03-29T05:26:57.410Z,45.00
2019-03-29T05:27:57.431Z,45.00
2019-03-29T05:28:57.394Z,50.62
2019-03-29T05:29:57.461Z,50.62
2019-03-29T05:30:57.376Z,50.62
2019-03-29T05:31:57.365Z,56.25
2019-03-29T05:32:57.370Z,56.25
2019-03-29T05:33:57.339Z,56.25
2019-03-29T05:34:57.327Z,56.25
2019-03-29T05:35:57.310Z,56.25
2019-03-29T05:36:58.589Z,61.88
2019-03-29T05:37:57.315Z,61.88
2019-03-29T05:38:57.292Z,61.88
2019-03-29T05:39:57.266Z,61.88
2019-03-29T05:40:57.253Z,61.88
2019-03-29T05:41:57.247Z,61.88
2019-03-29T05:42:57.258Z,67.50
2019-03-29T05:43:57.225Z,73.12
2019-03-29T05:44:57.227Z,73.12
2019-03-29T05:45:57.198Z,73.12
2019-03-29T05:46:57.190Z,73.12
2019-03-29T05:47:57.208Z,78.75
2019-03-29T05:48:57.170Z,84.38
2019-03-29T05:49:57.158Z,84.38
2019-03-29T05:50:57.147Z,84.38
2019-03-29T05:51:57.134Z,84.38
2019-03-29T05:52:57.156Z,90.00
2019-03-29T05:53:57.111Z,95.62
2019-03-29T05:54:57.100Z,90.00
2019-03-29T05:55:57.092Z,95.62
2019-03-29T05:56:57.071Z,101.25
2019-03-29T05:57:57.084Z,106.88
2019-03-29T05:58:57.059Z,106.88
2019-03-29T05:59:57.038Z,112.50
2019-03-29T06:00:57.036Z,112.50
2019-03-29T06:01:57.019Z,112.50
2019-03-29T06:02:57.023Z,112.50
2019-03-29T06:03:57.003Z,118.12
2019-03-29T06:04:56.986Z,123.75
2019-03-29T06:05:56.981Z,123.75
2019-03-29T06:06:56.964Z,123.75
2019-03-29T06:07:56.989Z,123.75
2019-03-29T06:08:56.941Z,129.38
2019-03-29T06:09:56.937Z,129.38
2019-03-29T06:10:56.920Z,129.38
2019-03-29T06:11:56.918Z,135.00
2019-03-29T06:12:56.893Z,135.00
2019-03-29T06:13:56.907Z,135.00
2019-03-29T06:14:56.875Z,135.00
2019-03-29T06:15:56.866Z,135.00
2019-03-29T06:16:56.857Z,135.00
2019-03-29T06:17:56.863Z,135.00
2019-03-29T06:18:56.931Z,135.00
2019-03-29T06:19:56.816Z,135.00
2019-03-29T06:20:56.804Z,135.00
2019-03-29T06:21:56.791Z,135.00
2019-03-29T06:22:56.829Z,135.00
2019-03-29T06:23:56.941Z,140.62
2019-03-29T06:24:56.801Z,140.62
2019-03-29T06:25:56.749Z,146.25
2019-03-29T06:26:56.741Z,151.88
2019-03-29T06:27:56.757Z,151.88
2019-03-29T06:28:56.723Z,151.88
2019-03-29T06:29:56.775Z,146.25
2019-03-29T06:30:56.690Z,146.25
2019-03-29T06:31:56.677Z,140.62
2019-03-29T06:32:56.697Z,140.62
2019-03-29T06:33:56.676Z,146.25
2019-03-29T06:34:56.648Z,151.88
2019-03-29T06:35:56.635Z,146.25
2019-03-29T06:36:56.631Z,140.62
2019-03-29T06:37:57.311Z,146.25
2019-03-29T06:38:56.739Z,151.88
2019-03-29T06:39:56.602Z,157.50
2019-03-29T06:41:02.689Z,157.50
2019-03-29T06:41:57.565Z,157.50
2019-03-29T06:42:56.555Z,163.12
2019-03-29T06:43:56.563Z,168.75
2019-03-29T06:44:56.538Z,174.38
2019-03-29T06:45:56.521Z,180.00
2019-03-29T06:46:56.514Z,185.62
2019-03-29T06:47:56.497Z,185.62
2019-03-29T06:48:56.559Z,191.25
2019-03-29T06:49:56.477Z,196.88
2019-03-29T06:50:56.471Z,196.88
2019-03-29T06:51:56.450Z,196.88
2019-03-29T06:52:56.447Z,196.88
2019-03-29T06:53:56.453Z,202.50
2019-03-29T06:54:56.431Z,202.50
2019-03-29T06:55:59.242Z,202.50
2019-03-29T06:56:56.402Z,202.50
2019-03-29T06:57:56.388Z,202.50
2019-03-29T06:58:56.397Z,202.50
2019-03-29T06:59:56.365Z,208.12
2019-03-29T07:01:57.427Z,213.75
2019-03-29T07:02:56.349Z,219.38
2019-03-29T07:03:56.338Z,219.38
2019-03-29T07:04:56.311Z,219.38
2019-03-29T07:05:56.297Z,225.00
2019-03-29T07:06:56.285Z,225.00
2019-03-29T07:07:56.283Z,225.00
2019-03-29T07:08:56.283Z,225.00
2019-03-29T07:09:56.245Z,225.00
2019-03-29T07:10:56.243Z,225.00
2019-03-29T07:11:56.279Z,213.75
2019-03-29T07:12:56.652Z,213.75
2019-03-29T07:13:58.021Z,213.75
2019-03-29T07:14:56.236Z,225.00
2019-03-29T07:15:56.243Z,219.38
2019-03-29T07:16:56.178Z,225.00
2019-03-29T07:17:56.164Z,219.38
2019-03-29T07:18:56.158Z,213.75
2019-03-29T07:19:56.165Z,213.75
2019-03-29T07:20:56.124Z,219.38
2019-03-29T07:21:56.116Z,213.75
2019-03-29T07:22:56.109Z,213.75
2019-03-29T07:23:56.097Z,208.12
2019-03-29T07:24:56.109Z,213.75
2019-03-29T07:25:56.508Z,213.75
2019-03-29T07:26:56.056Z,219.38
2019-03-29T07:27:56.050Z,225.00
2019-03-29T07:28:56.034Z,230.62
2019-03-29T07:29:56.067Z,241.88
2019-03-29T07:30:56.014Z,247.50
2019-03-29T07:31:56.003Z,247.50
2019-03-29T07:32:55.993Z,253.12
2019-03-29T07:33:55.979Z,253.12
2019-03-29T07:34:56.062Z,253.12
2019-03-29T07:35:55.970Z,247.50
2019-03-29T07:36:55.944Z,241.88
2019-03-29T07:37:55.937Z,241.88
2019-03-29T07:38:55.925Z,253.12
2019-03-29T07:39:55.932Z,264.38
2019-03-29T07:40:55.913Z,281.25
2019-03-29T07:41:55.888Z,281.25
2019-03-29T07:42:55.879Z,281.25
2019-03-29T07:43:55.866Z,275.62
2019-03-29T07:44:55.877Z,275.62
2019-03-29T07:45:55.849Z,281.25
2019-03-29T07:46:55.841Z,281.25
2019-03-29T07:47:55.824Z,281.25
2019-03-29T07:48:55.812Z,281.25
2019-03-29T07:49:55.841Z,281.25
2019-03-29T07:50:55.787Z,275.62
2019-03-29T07:51:55.785Z,286.88
2019-03-29T07:52:55.765Z,292.50
2019-03-29T07:53:55.756Z,281.25
2019-03-29T07:54:55.746Z,275.62
2019-03-29T07:55:55.754Z,281.25
2019-03-29T07:56:55.724Z,286.88
2019-03-29T07:57:55.734Z,292.50
2019-03-29T07:58:55.701Z,309.38
2019-03-29T07:59:55.701Z,320.62
2019-03-29T08:00:55.693Z,326.25
2019-03-29T08:01:55.668Z,331.88
2019-03-29T08:02:55.787Z,331.88
2019-03-29T08:03:55.652Z,337.50
2019-03-29T08:04:55.626Z,337.50
2019-03-29T08:05:55.641Z,343.12
2019-03-29T08:06:55.614Z,348.75
2019-03-29T08:07:55.590Z,348.75
2019-03-29T08:08:55.584Z,343.12
2019-03-29T08:09:55.580Z,337.50
2019-03-29T08:10:55.579Z,337.50
2019-03-29T08:11:55.577Z,343.12
2019-03-29T08:12:55.533Z,343.12
2019-03-29T08:13:55.533Z,343.12
2019-03-29T08:14:55.527Z,348.75
2019-03-29T08:15:55.539Z,360.00
2019-03-29T08:16:55.495Z,360.00
2019-03-29T08:17:55.480Z,365.62
2019-03-29T08:18:55.470Z,360.00
2019-03-29T08:20:13.357Z,365.62
2019-03-29T08:20:56.467Z,376.88
2019-03-29T08:21:57.792Z,382.50
2019-03-29T08:22:55.423Z,376.88
2019-03-29T08:23:55.423Z,365.62
2019-03-29T08:24:55.404Z,360.00
2019-03-29T08:25:55.426Z,360.00
2019-03-29T08:26:55.380Z,360.00
2019-03-29T08:27:55.370Z,354.38
2019-03-29T08:28:55.357Z,354.38
2019-03-29T08:29:55.351Z,343.12
2019-03-29T08:30:55.369Z,337.50
2019-03-29T08:31:55.807Z,337.50
2019-03-29T08:32:55.311Z,337.50
2019-03-29T08:33:55.305Z,343.12
2019-03-29T08:34:55.312Z,348.75
2019-03-29T08:35:55.370Z,348.75
2019-03-29T08:36:55.283Z,354.38
2019-03-29T08:37:55.254Z,360.00
2019-03-29T08:38:55.246Z,360.00
2019-03-29T08:39:56.589Z,360.00
2019-03-29T08:40:55.247Z,365.62
2019-03-29T08:42:00.366Z,371.25
2019-03-29T08:42:56.203Z,376.88
2019-03-29T08:43:55.189Z,371.25
2019-03-29T08:44:55.186Z,365.62
2019-03-29T08:45:57.524Z,376.88
2019-03-29T08:46:55.154Z,376.88
2019-03-29T08:47:55.147Z,382.50
2019-03-29T08:48:55.209Z,382.50
2019-03-29T08:49:55.120Z,376.88
2019-03-29T08:50:55.125Z,371.25
2019-03-29T08:51:55.101Z,365.62
2019-03-29T08:52:55.096Z,354.38
2019-03-29T08:53:55.083Z,354.38
2019-03-29T08:54:55.068Z,360.00
2019-03-29T08:55:55.075Z,371.25
2019-03-29T08:56:55.085Z,388.12
2019-03-29T08:57:55.042Z,405.00
2019-03-29T08:58:55.025Z,416.25
2019-03-29T08:59:55.009Z,433.12
2019-03-29T09:00:55.031Z,438.75
2019-03-29T09:01:54.994Z,433.12
2019-03-29T09:02:54.972Z,416.25
2019-03-29T09:04:04.542Z,416.25
2019-03-29T09:04:55.961Z,427.50
2019-03-29T09:05:54.966Z,416.25
2019-03-29T09:06:54.954Z,405.00
2019-03-29T09:07:54.915Z,416.25
2019-03-29T09:08:54.908Z,405.00
2019-03-29T09:09:54.903Z,393.75
2019-03-29T09:10:54.892Z,382.50
2019-03-29T09:11:54.893Z,399.38
2019-03-29T09:12:54.869Z,410.62
2019-03-29T09:13:54.848Z,405.00
2019-03-29T09:14:54.832Z,410.62
2019-03-29T09:15:54.831Z,410.62
2019-03-29T09:16:54.837Z,410.62
2019-03-29T09:17:54.800Z,405.00
2019-03-29T09:18:54.795Z,393.75
2019-03-29T09:19:54.780Z,360.00
2019-03-29T09:20:54.773Z,337.50
2019-03-29T09:21:54.783Z,337.50
2019-03-29T09:22:54.789Z,360.00
2019-03-29T09:23:54.760Z,343.12
2019-03-29T09:24:54.968Z,365.62
2019-03-29T09:25:54.734Z,360.00
2019-03-29T09:26:54.737Z,360.00
2019-03-29T09:27:54.694Z,343.12
2019-03-29T09:28:54.739Z,315.00
2019-03-29T09:29:54.696Z,326.25
2019-03-29T09:30:56.624Z,348.75
2019-03-29T09:31:54.712Z,337.50
2019-03-29T09:32:54.660Z,309.38
2019-03-29T09:33:54.618Z,298.12
2019-03-29T09:34:54.616Z,315.00
2019-03-29T09:35:54.602Z,331.88
2019-03-29T09:36:54.624Z,337.50
2019-03-29T09:37:56.490Z,348.75
2019-03-29T09:38:54.564Z,360.00
2019-03-29T09:39:54.555Z,354.38
2019-03-29T09:40:58.856Z,354.38
2019-03-29T09:41:54.552Z,343.12
2019-03-29T09:43:06.718Z,348.75
2019-03-29T09:43:55.515Z,326.25
2019-03-29T09:44:54.496Z,303.75
2019-03-29T09:45:54.482Z,315.00
2019-03-29T09:46:54.491Z,303.75
2019-03-29T09:47:55.888Z,292.50
2019-03-29T09:48:54.562Z,298.12
2019-03-29T09:49:54.456Z,281.25
2019-03-29T09:50:54.435Z,253.12
2019-03-29T09:51:54.442Z,230.62
2019-03-29T09:52:54.410Z,258.75
2019-03-29T09:53:57.668Z,292.50
2019-03-29T09:54:54.400Z,292.50
2019-03-29T09:55:54.386Z,275.62
2019-03-29T09:56:54.395Z,247.50
2019-03-29T09:57:54.345Z,230.62
2019-03-29T09:58:54.394Z,225.00
2019-03-29T09:59:54.334Z,230.62
2019-03-29T10:00:54.319Z,236.25
2019-03-29T10:01:54.478Z,247.50
2019-03-29T10:02:54.499Z,270.00
2019-03-29T10:03:54.369Z,298.12
2019-03-29T10:04:54.328Z,309.38
2019-03-29T10:05:54.270Z,320.62
2019-03-29T10:06:54.255Z,320.62
2019-03-29T10:07:54.256Z,315.00
2019-03-29T10:08:54.230Z,309.38
2019-03-29T10:09:54.216Z,303.75
2019-03-29T10:10:54.237Z,298.12
2019-03-29T10:11:54.214Z,303.75
2019-03-29T10:12:54.221Z,303.75
2019-03-29T10:13:54.180Z,309.38
2019-03-29T10:14:54.173Z,326.25
2019-03-29T10:15:54.221Z,331.88
2019-03-29T10:16:54.151Z,337.50
2019-03-29T10:17:54.161Z,337.50
2019-03-29T10:18:54.122Z,348.75
2019-03-29T10:19:54.128Z,348.75
2019-03-29T10:20:54.091Z,343.12
2019-03-29T10:21:54.082Z,326.25
2019-03-29T10:22:54.090Z,337.50
2019-03-29T10:23:54.099Z,365.62
2019-03-29T10:24:54.052Z,360.00
2019-03-29T10:25:54.036Z,348.75
2019-03-29T10:26:54.021Z,348.75
2019-03-29T10:27:54.030Z,360.00
2019-03-29T10:28:54.028Z,360.00
2019-03-29T10:29:53.995Z,360.00
2019-03-29T10:30:53.973Z,348.75
2019-03-29T10:31:54.018Z,348.75
2019-03-29T10:32:55.464Z,360.00
2019-03-29T10:33:54.011Z,382.50
2019-03-29T10:34:53.926Z,393.75
2019-03-29T10:35:53.931Z,399.38
2019-03-29T10:36:53.937Z,410.62
2019-03-29T10:37:53.931Z,393.75
2019-03-29T10:38:53.892Z,382.50
2019-03-29T10:39:53.874Z,421.88
2019-03-29T10:40:53.858Z,438.75
2019-03-29T10:41:53.858Z,444.38
2019-03-29T10:42:57.988Z,455.62
2019-03-29T10:43:53.834Z,455.62
2019-03-29T10:44:53.830Z,472.50
2019-03-29T10:45:53.800Z,483.75
2019-03-29T10:46:53.801Z,461.25
2019-03-29T10:47:53.810Z,444.38
2019-03-29T10:48:53.773Z,466.88
2019-03-29T10:49:53.762Z,466.88
2019-03-29T10:50:53.746Z,461.25
2019-03-29T10:51:53.736Z,472.50
2019-03-29T10:52:53.757Z,483.75
2019-03-29T10:53:53.732Z,500.62
2019-03-29T10:54:53.698Z,489.38
2019-03-29T10:55:53.705Z,506.25
2019-03-29T10:56:53.682Z,506.25
2019-03-29T10:57:53.672Z,500.62
2019-03-29T10:58:53.680Z,495.00
2019-03-29T10:59:53.658Z,489.38
2019-03-29T11:00:53.639Z,478.12
2019-03-29T11:01:53.625Z,472.50
2019-03-29T11:02:53.612Z,478.12
2019-03-29T11:03:53.618Z,478.12
2019-03-29T11:04:53.588Z,478.12
2019-03-29T11:05:53.574Z,483.75
2019-03-29T11:06:53.571Z,455.62
2019-03-29T11:07:53.561Z,421.88
2019-03-29T11:08:53.562Z,416.25
2019-03-29T11:09:53.530Z,433.12
2019-03-29T11:10:53.526Z,500.62
2019-03-29T11:11:53.516Z,500.62
2019-03-29T11:12:53.493Z,489.38
2019-03-29T11:13:56.540Z,511.88
2019-03-29T11:14:53.478Z,523.12
2019-03-29T11:15:53.463Z,540.00
2019-03-29T11:16:53.460Z,540.00
2019-03-29T11:17:53.445Z,540.00
2019-03-29T11:18:53.446Z,500.62
2019-03-29T11:19:53.423Z,466.88
2019-03-29T11:20:53.412Z,500.62
2019-03-29T11:21:53.411Z,534.38
2019-03-29T11:22:53.385Z,523.12
2019-03-29T11:23:53.402Z,556.88
2019-03-29T11:24:53.365Z,635.62
2019-03-29T11:25:53.349Z,748.12
2019-03-29T11:26:53.351Z,1158.75
2019-03-29T11:27:53.325Z,759.38
2019-03-29T11:28:53.331Z,686.25
2019-03-29T11:29:53.340Z,551.25
2019-03-29T11:30:53.292Z,472.50
2019-03-29T11:31:53.285Z,433.12
2019-03-29T11:32:53.277Z,410.62
2019-03-29T11:33:53.271Z,393.75
2019-03-29T11:34:53.256Z,371.25
2019-03-29T11:35:53.231Z,365.62
2019-03-29T11:36:53.235Z,360.00
2019-03-29T11:37:53.221Z,354.38
2019-03-29T11:38:53.247Z,348.75
2019-03-29T11:39:53.201Z,343.12
2019-03-29T11:40:53.248Z,326.25
2019-03-29T11:41:53.165Z,315.00
2019-03-29T11:42:53.154Z,309.38
2019-03-29T11:43:53.177Z,309.38
2019-03-29T11:44:53.131Z,309.38
2019-03-29T11:45:53.131Z,303.75
2019-03-29T11:46:53.111Z,298.12
2019-03-29T11:48:06.888Z,298.12
2019-03-29T11:48:54.121Z,303.75
2019-03-29T11:49:53.079Z,309.38
2019-03-29T11:50:53.063Z,309.38
2019-03-29T11:51:53.071Z,303.75
2019-03-29T11:52:53.042Z,298.12
2019-03-29T11:53:53.054Z,292.50
2019-03-29T11:54:53.025Z,286.88
2019-03-29T11:55:53.037Z,292.50
2019-03-29T11:56:53.005Z,298.12
2019-03-29T11:57:55.715Z,298.12
2019-03-29T11:58:52.994Z,303.75
2019-03-29T11:59:52.992Z,315.00
2019-03-29T12:00:52.962Z,326.25
2019-03-29T12:01:52.941Z,326.25
2019-03-29T12:02:52.935Z,337.50
2019-03-29T12:03:52.930Z,354.38
2019-03-29T12:04:52.932Z,365.62
2019-03-29T12:05:52.890Z,382.50
2019-03-29T12:06:52.889Z,405.00
2019-03-29T12:07:52.873Z,427.50
2019-03-29T12:08:56.896Z,433.12
2019-03-29T12:09:52.897Z,450.00
2019-03-29T12:10:52.839Z,455.62
2019-03-29T12:11:52.825Z,444.38
2019-03-29T12:12:52.816Z,438.75
2019-03-29T12:13:52.820Z,416.25
2019-03-29T12:14:52.832Z,405.00
2019-03-29T12:15:52.796Z,405.00
2019-03-29T12:16:52.777Z,399.38
2019-03-29T12:17:52.782Z,371.25
2019-03-29T12:18:52.753Z,348.75
2019-03-29T12:19:52.765Z,337.50
2019-03-29T12:20:54.388Z,331.88
2019-03-29T12:21:52.730Z,331.88
2019-03-29T12:22:52.713Z,331.88
2019-03-29T12:23:52.711Z,315.00
2019-03-29T12:24:52.701Z,315.00
2019-03-29T12:25:52.677Z,309.38
2019-03-29T12:26:55.003Z,292.50
2019-03-29T12:27:52.686Z,275.62
2019-03-29T12:28:52.642Z,264.38
2019-03-29T12:29:52.651Z,258.75
2019-03-29T12:30:52.629Z,258.75
2019-03-29T12:31:52.605Z,270.00
2019-03-29T12:32:52.607Z,286.88
2019-03-29T12:33:52.595Z,298.12
2019-03-29T12:34:52.601Z,309.38
2019-03-29T12:35:52.582Z,326.25
2019-03-29T12:36:52.547Z,343.12
2019-03-29T12:37:52.626Z,337.50
2019-03-29T12:38:52.528Z,320.62
2019-03-29T12:39:52.610Z,315.00
2019-03-29T12:40:52.502Z,292.50
2019-03-29T12:41:52.498Z,298.12
2019-03-29T12:42:52.473Z,303.75
2019-03-29T12:43:55.939Z,298.12
2019-03-29T12:44:52.465Z,303.75
2019-03-29T12:45:52.437Z,315.00
2019-03-29T12:46:52.433Z,315.00
2019-03-29T12:47:52.421Z,303.75
2019-03-29T12:48:52.411Z,292.50
2019-03-29T12:49:52.420Z,286.88